createdAt,value
2023-01-13T00:01:22.069Z,150582.06
2023-01-13T00:03:48.114Z,150587.13
2023-01-13T00:06:20.657Z,150595.97
2023-01-13T00:08:50.680Z,150599.75
2023-01-13T00:11:17.907Z,150588.38
2023-01-13T00:13:44.278Z,150594.66
2023-01-13T00:16:14.700Z,150606.06
2023-01-13T00:18:41.126Z,150611.09
2023-01-13T00:21:12.049Z,150611.09
2023-01-13T00:23:38.898Z,150618.69
2023-01-13T00:26:16.570Z,150601.00
2023-01-13T00:28:42.785Z,150583.34
2023-01-13T00:31:13.868Z,150607.31
2023-01-13T00:33:40.533Z,150612.34
2023-01-13T00:36:08.270Z,150622.47
2023-01-13T00:38:35.478Z,150598.50
2023-01-13T00:41:06.330Z,150587.13
2023-01-13T00:43:34.611Z,150604.78
2023-01-13T00:46:01.143Z,150619.94
2023-01-13T00:48:28.829Z,150628.75
2023-01-13T00:50:56.029Z,150612.34
2023-01-13T00:53:21.927Z,150594.66
2023-01-13T00:55:47.767Z,150593.41
2023-01-13T00:58:13.880Z,150619.94
2023-01-13T01:00:39.784Z,150632.59
2023-01-13T01:03:11.441Z,150584.59
2023-01-13T01:05:40.391Z,150580.81
2023-01-13T01:08:06.261Z,150575.72
2023-01-13T01:10:32.083Z,150551.75
2023-01-13T01:12:57.979Z,150573.22
2023-01-13T01:15:23.816Z,150555.53
2023-01-13T01:17:49.646Z,150573.22
2023-01-13T01:20:15.968Z,150568.19
2023-01-13T01:22:41.734Z,150558.06
2023-01-13T01:25:08.004Z,150594.66
2023-01-13T01:27:33.785Z,150599.75
2023-01-13T01:29:59.620Z,150553.00
2023-01-13T01:32:25.433Z,150531.56
2023-01-13T01:34:51.561Z,150549.25
2023-01-13T01:37:17.509Z,150539.13
2023-01-13T01:39:43.302Z,150500.00
2023-01-13T01:42:33.281Z,150511.38
2023-01-13T01:45:02.010Z,150515.16
2023-01-13T01:47:30.395Z,150474.75
2023-01-13T01:49:57.636Z,150429.31
2023-01-13T01:52:38.231Z,150395.22
2023-01-13T01:55:17.416Z,150412.88
2023-01-13T01:58:07.016Z,150444.47
2023-01-13T02:00:32.793Z,150458.34
2023-01-13T02:02:59.731Z,150488.66
2023-01-13T02:05:25.582Z,150496.22
2023-01-13T02:07:54.280Z,150494.94
2023-01-13T02:10:23.309Z,150452.00
2023-01-13T02:12:50.213Z,150400.31
2023-01-13T02:15:19.725Z,150397.72
2023-01-13T02:18:00.536Z,150401.56
2023-01-13T02:20:59.975Z,150420.50
2023-01-13T02:24:41.197Z,150366.22
2023-01-13T02:27:39.614Z,150337.19
2023-01-13T02:30:54.766Z,150333.41
2023-01-13T02:33:23.549Z,150322.03
2023-01-13T02:35:56.730Z,150275.34
2023-01-13T02:38:30.648Z,150286.72
2023-01-13T02:41:28.130Z,150238.75
2023-01-13T02:44:06.181Z,150217.28
2023-01-13T02:46:50.188Z,150202.19
2023-01-13T02:49:30.897Z,150200.88
2023-01-13T02:52:06.175Z,150218.53
2023-01-13T02:54:36.066Z,150198.38
2023-01-13T02:57:04.592Z,150184.53
2023-01-13T02:59:31.335Z,150181.97
2023-01-13T03:01:58.787Z,150208.47
2023-01-13T03:04:48.520Z,150181.97
2023-01-13T03:07:26.414Z,150155.50
2023-01-13T03:10:24.814Z,150150.47
2023-01-13T03:13:20.037Z,150135.34
2023-01-13T03:16:04.128Z,150150.47
2023-01-13T03:18:50.093Z,150146.66
2023-01-13T03:21:18.883Z,150166.88
2023-01-13T03:23:50.480Z,150161.78
2023-01-13T03:26:23.945Z,150142.88
2023-01-13T03:28:57.429Z,150164.31
2023-01-13T03:31:30.026Z,150159.28
2023-01-13T03:34:01.442Z,150155.50
2023-01-13T03:36:28.552Z,150146.66
2023-01-13T03:38:59.833Z,150202.19
2023-01-13T03:41:52.711Z,150156.75
2023-01-13T03:44:27.352Z,150161.78
2023-01-13T03:47:05.331Z,150163.06
2023-01-13T03:49:53.595Z,150170.66
2023-01-13T03:52:35.838Z,150131.56
2023-01-13T03:55:07.876Z,150130.31
2023-01-13T03:57:39.104Z,150154.25
2023-01-13T04:00:08.822Z,150121.47
2023-01-13T04:02:40.494Z,150127.75
2023-01-13T04:05:09.490Z,150151.72
2023-01-13T04:07:55.590Z,150159.28
2023-01-13T04:10:30.700Z,150171.91
2023-01-13T04:13:07.340Z,150153.00
2023-01-13T04:15:35.979Z,150120.19
2023-01-13T04:18:10.802Z,150121.47
2023-01-13T04:20:37.988Z,150146.66
2023-01-13T04:23:03.763Z,150130.31
2023-01-13T04:25:29.544Z,150137.84
2023-01-13T04:27:55.324Z,150166.88
2023-01-13T04:30:22.221Z,150159.28
2023-01-13T04:32:47.993Z,150150.47
2023-01-13T04:35:13.951Z,150141.63
2023-01-13T04:37:39.798Z,150160.53
2023-01-13T04:40:06.411Z,150121.47
2023-01-13T04:42:32.215Z,150111.41
2023-01-13T04:44:57.976Z,150135.34
2023-01-13T04:47:23.789Z,150113.91
2023-01-13T04:49:49.648Z,150115.16
2023-01-13T04:52:15.537Z,150121.47
2023-01-13T04:54:41.331Z,150150.47
2023-01-13T04:57:07.168Z,150141.63
2023-01-13T04:59:34.595Z,150079.88
2023-01-13T05:02:00.797Z,150096.25
2023-01-13T05:04:26.693Z,150089.91
2023-01-13T05:06:52.645Z,150092.44
2023-01-13T05:09:18.508Z,150103.81
2023-01-13T05:12:03.055Z,150098.78
2023-01-13T05:14:47.427Z,150098.78
2023-01-13T05:17:24.219Z,150073.53
2023-01-13T05:19:50.305Z,150059.69
2023-01-13T05:22:34.882Z,150063.47
2023-01-13T05:25:19.440Z,150062.22
2023-01-13T05:27:45.395Z,150060.94
2023-01-13T05:30:11.638Z,150060.94
2023-01-13T05:32:37.514Z,150057.13
2023-01-13T05:35:03.656Z,150044.56
2023-01-13T05:37:29.566Z,150053.38
2023-01-13T05:40:13.865Z,150071.00
2023-01-13T05:42:58.350Z,150087.41
2023-01-13T05:45:24.558Z,150055.88
2023-01-13T05:47:50.448Z,150059.69
2023-01-13T05:50:17.219Z,150086.16
2023-01-13T05:52:43.169Z,150069.75
2023-01-13T05:55:10.169Z,150082.38
2023-01-13T05:57:36.185Z,150079.88
2023-01-13T06:00:03.519Z,150074.78
2023-01-13T06:02:29.355Z,150084.91
2023-01-13T06:04:55.195Z,150096.25
2023-01-13T06:07:21.073Z,150092.44
2023-01-13T06:09:46.986Z,150093.75
2023-01-13T06:12:13.629Z,150074.78
2023-01-13T06:14:39.676Z,150103.81
2023-01-13T06:17:10.738Z,150122.72
2023-01-13T06:19:37.449Z,150095.00
2023-01-13T06:22:11.299Z,150097.50
2023-01-13T06:24:37.131Z,150125.22
2023-01-13T06:27:04.531Z,150106.31
2023-01-13T06:29:30.468Z,150127.75
2023-01-13T06:31:57.264Z,150108.84
2023-01-13T06:34:23.260Z,150130.31
2023-01-13T06:36:53.041Z,150065.97
2023-01-13T06:39:23.628Z,150081.13
2023-01-13T06:42:11.891Z,150089.91
2023-01-13T06:44:38.569Z,150095.00
2023-01-13T06:47:05.520Z,150098.78
2023-01-13T06:49:31.369Z,150111.41
2023-01-13T06:51:57.214Z,150142.88
2023-01-13T06:54:23.060Z,150113.91
2023-01-13T06:56:48.853Z,150123.97
2023-01-13T06:59:14.623Z,150116.41
2023-01-13T07:01:40.635Z,150086.16
2023-01-13T07:04:06.535Z,150092.44
2023-01-13T07:06:32.370Z,150095.00
2023-01-13T07:08:58.349Z,150059.69
2023-01-13T07:11:24.386Z,150074.78
2023-01-13T07:14:08.463Z,150058.44
2023-01-13T07:16:34.486Z,150096.25
2023-01-13T07:19:00.607Z,150082.38
2023-01-13T07:21:26.578Z,150072.28
2023-01-13T07:23:52.381Z,150122.72
2023-01-13T07:26:18.178Z,150110.09
2023-01-13T07:28:44.396Z,150130.31
2023-01-13T07:31:22.357Z,150122.72
2023-01-13T07:33:48.322Z,150092.44
2023-01-13T07:36:14.819Z,150117.69
2023-01-13T07:38:43.494Z,150144.13
2023-01-13T07:41:31.140Z,150117.69
2023-01-13T07:43:56.973Z,150115.16
2023-01-13T07:46:23.059Z,150129.00
2023-01-13T07:48:48.925Z,150142.88
2023-01-13T07:51:15.127Z,150159.28
2023-01-13T07:53:41.020Z,150131.56
2023-01-13T07:56:07.589Z,150146.66
2023-01-13T07:58:34.971Z,150135.34
2023-01-13T08:01:11.399Z,150125.22
2023-01-13T08:03:38.156Z,150102.53
2023-01-13T08:06:05.095Z,150089.91
2023-01-13T08:08:30.978Z,150086.16
2023-01-13T08:11:01.298Z,150089.91
2023-01-13T08:13:27.185Z,150086.16
2023-01-13T08:16:00.067Z,150092.44
2023-01-13T08:18:26.004Z,150060.94
2023-01-13T08:20:52.305Z,150062.22
2023-01-13T08:23:19.862Z,150091.19
2023-01-13T08:25:45.880Z,150088.66
2023-01-13T08:28:12.880Z,150063.47
2023-01-13T08:30:39.042Z,150122.72
2023-01-13T08:33:10.171Z,150107.56
2023-01-13T08:35:37.554Z,150101.28
2023-01-13T08:38:04.197Z,150091.19
2023-01-13T08:40:30.059Z,150145.41
2023-01-13T08:42:56.530Z,150116.41
2023-01-13T08:45:22.696Z,150129.00
2023-01-13T08:47:48.612Z,150111.41
2023-01-13T08:50:14.877Z,150121.47
2023-01-13T08:52:41.367Z,150121.47
2023-01-13T08:55:08.230Z,150131.56
2023-01-13T08:57:34.339Z,150087.41
2023-01-13T09:00:00.200Z,150089.91
2023-01-13T09:02:26.867Z,150101.28
2023-01-13T09:04:53.090Z,150102.53
2023-01-13T09:07:19.359Z,150123.97
2023-01-13T09:09:45.256Z,150151.72
2023-01-13T09:12:31.099Z,150123.97
2023-01-13T09:14:57.364Z,150102.53
2023-01-13T09:17:23.349Z,150111.41
2023-01-13T09:19:49.807Z,150112.66
2023-01-13T09:22:17.947Z,150112.66
2023-01-13T09:24:44.511Z,150123.97
2023-01-13T09:27:12.054Z,150088.66
2023-01-13T09:29:38.188Z,150107.56
2023-01-13T09:32:04.784Z,150113.91
2023-01-13T09:34:49.391Z,150097.50
2023-01-13T09:37:15.492Z,150091.19
2023-01-13T09:39:41.412Z,150065.97
2023-01-13T09:42:44.189Z,150112.66
2023-01-13T09:45:21.978Z,150116.41
2023-01-13T09:48:12.671Z,150108.84
2023-01-13T09:51:00.176Z,150100.03
2023-01-13T09:53:30.949Z,150083.63
2023-01-13T09:55:56.811Z,150105.06
2023-01-13T09:58:24.129Z,150105.06
2023-01-13T10:01:15.872Z,150091.19
2023-01-13T10:03:41.918Z,150076.09
2023-01-13T10:06:19.303Z,150092.44
2023-01-13T10:08:47.139Z,150129.00
2023-01-13T10:11:35.124Z,150129.00
2023-01-13T10:14:10.657Z,150132.81
2023-01-13T10:16:42.707Z,150121.47
2023-01-13T10:19:17.038Z,150125.22
2023-01-13T10:21:54.487Z,150136.59
2023-01-13T10:24:38.991Z,150103.81
2023-01-13T10:27:17.917Z,150131.56
2023-01-13T10:29:43.795Z,150117.69
2023-01-13T10:32:09.828Z,150131.56
2023-01-13T10:34:50.671Z,150145.41
2023-01-13T10:37:21.911Z,150146.66
2023-01-13T10:39:48.917Z,150116.41
2023-01-13T10:42:17.730Z,150111.41
2023-01-13T10:45:03.036Z,150132.81
2023-01-13T10:47:31.414Z,150122.72
2023-01-13T10:50:12.388Z,150142.88
2023-01-13T10:52:42.721Z,150141.63
2023-01-13T10:55:32.685Z,150178.19
2023-01-13T10:58:13.341Z,150159.28
2023-01-13T11:00:39.461Z,150179.44
2023-01-13T11:03:17.515Z,150165.63
2023-01-13T11:05:53.808Z,150163.06
2023-01-13T11:08:23.362Z,150179.44
2023-01-13T11:10:55.480Z,150180.72
2023-01-13T11:13:56.673Z,150209.72
2023-01-13T11:16:24.669Z,150161.78
2023-01-13T11:19:12.373Z,150127.75
2023-01-13T11:21:49.129Z,150129.00
2023-01-13T11:24:28.394Z,150136.59
2023-01-13T11:27:00.251Z,150132.81
2023-01-13T11:29:33.415Z,150146.66
2023-01-13T11:32:10.427Z,150129.00
2023-01-13T11:34:40.716Z,150149.22
2023-01-13T11:37:25.025Z,150174.41
2023-01-13T11:40:06.977Z,150168.13
2023-01-13T11:42:53.054Z,150164.31
2023-01-13T11:45:37.448Z,150183.28
2023-01-13T11:48:03.944Z,150202.19
2023-01-13T11:50:35.721Z,150267.75
2023-01-13T11:53:29.282Z,150536.59
2023-01-13T11:56:10.072Z,150452.00
2023-01-13T11:59:06.593Z,150333.41
2023-01-13T12:01:58.178Z,150290.47
2023-01-13T12:04:32.639Z,150308.16
2023-01-13T12:07:13.011Z,150291.78
2023-01-13T12:09:43.853Z,150300.59
2023-01-13T12:12:32.508Z,150291.78
2023-01-13T12:15:06.977Z,150286.72
2023-01-13T12:17:49.284Z,150289.22
2023-01-13T12:20:44.351Z,150329.63
2023-01-13T12:23:26.202Z,150356.09
2023-01-13T12:25:58.146Z,150546.72
2023-01-13T12:28:46.193Z,150563.13
2023-01-13T12:31:13.608Z,150530.31
2023-01-13T12:34:00.762Z,150410.38
2023-01-13T12:36:41.909Z,150337.19
2023-01-13T12:39:24.998Z,150279.13
2023-01-13T12:42:28.643Z,150257.69
2023-01-13T12:45:09.457Z,150247.56
2023-01-13T12:47:37.569Z,150263.97
2023-01-13T12:50:21.975Z,150275.34
2023-01-13T12:52:49.080Z,150255.16
2023-01-13T12:55:19.927Z,150258.94
2023-01-13T12:58:04.045Z,150267.75
2023-01-13T13:00:38.795Z,150241.28
2023-01-13T13:03:10.239Z,150262.72
2023-01-13T13:05:54.298Z,150260.19
2023-01-13T13:08:49.624Z,150228.66
2023-01-13T13:11:41.674Z,150224.88
2023-01-13T13:14:12.267Z,150185.78
2023-01-13T13:16:52.177Z,150168.13
2023-01-13T13:19:18.051Z,150147.97
2023-01-13T13:22:12.021Z,150176.94
2023-01-13T13:24:39.491Z,150106.31
2023-01-13T13:27:18.575Z,150077.34
2023-01-13T13:29:59.507Z,150054.63
2023-01-13T13:32:43.563Z,150083.63
2023-01-13T13:35:23.159Z,150019.31
2023-01-13T13:38:29.774Z,149995.41
2023-01-13T13:41:14.158Z,149982.78
2023-01-13T13:44:01.669Z,149953.81
2023-01-13T13:46:48.478Z,149972.72
2023-01-13T13:49:20.325Z,149914.75
2023-01-13T13:52:02.197Z,149916.03
2023-01-13T13:54:28.723Z,149933.66
2023-01-13T13:56:54.703Z,149905.91
2023-01-13T13:59:23.519Z,149904.66
2023-01-13T14:02:01.099Z,149936.19
2023-01-13T14:04:30.101Z,149970.22
2023-01-13T14:06:58.399Z,149956.34
2023-01-13T14:09:25.887Z,149967.66
2023-01-13T14:12:05.852Z,149967.66
2023-01-13T14:14:31.783Z,149960.09
2023-01-13T14:16:58.030Z,149955.06
2023-01-13T14:19:26.883Z,149957.59
2023-01-13T14:21:52.922Z,149963.88
2023-01-13T14:24:20.549Z,149952.56
2023-01-13T14:26:51.157Z,149973.97
2023-01-13T14:29:21.664Z,149956.34
2023-01-13T14:31:50.806Z,149960.09
2023-01-13T14:34:32.411Z,149955.06
2023-01-13T14:36:59.875Z,149980.25
2023-01-13T14:39:34.424Z,150002.94
2023-01-13T14:42:00.303Z,149973.97
2023-01-13T14:44:30.197Z,149986.59
2023-01-13T14:47:00.109Z,150019.31
2023-01-13T14:49:40.779Z,150052.09
2023-01-13T14:52:12.942Z,150006.75
2023-01-13T14:54:38.801Z,150048.34
2023-01-13T14:57:30.630Z,150010.53
2023-01-13T14:59:56.871Z,149980.25
2023-01-13T15:02:29.060Z,149982.78
2023-01-13T15:05:23.543Z,149965.13
2023-01-13T15:07:54.141Z,149963.88
2023-01-13T15:10:25.972Z,149975.22
2023-01-13T15:12:55.030Z,149966.38
2023-01-13T15:15:38.738Z,149980.25
2023-01-13T15:18:11.812Z,149997.91
2023-01-13T15:20:38.340Z,150033.19
2023-01-13T15:23:04.324Z,149980.25
2023-01-13T15:25:34.870Z,150010.53
2023-01-13T15:28:01.113Z,149965.13
2023-01-13T15:30:27.408Z,149976.50
2023-01-13T15:32:55.478Z,149960.09
2023-01-13T15:35:23.276Z,149956.34
2023-01-13T15:37:50.125Z,149973.97
2023-01-13T15:40:17.871Z,149955.06
2023-01-13T15:43:02.810Z,149967.66
2023-01-13T15:45:49.403Z,149947.47
2023-01-13T15:48:15.283Z,149973.97
2023-01-13T15:50:41.384Z,149977.75
2023-01-13T15:53:09.741Z,149982.78
2023-01-13T15:55:37.593Z,150002.94
2023-01-13T15:58:04.170Z,150004.25
2023-01-13T16:00:30.295Z,149982.78
2023-01-13T16:02:56.298Z,149989.09
2023-01-13T16:05:22.372Z,149975.22
2023-01-13T16:07:48.292Z,149982.78
2023-01-13T16:10:25.477Z,149966.38
2023-01-13T16:12:53.056Z,149979.00
2023-01-13T16:15:21.721Z,149960.09
2023-01-13T16:17:55.063Z,149982.78
2023-01-13T16:20:20.981Z,149966.38
2023-01-13T16:22:46.977Z,149952.56
2023-01-13T16:25:17.205Z,149950.06
2023-01-13T16:27:43.574Z,149946.22
2023-01-13T16:30:30.890Z,149950.06
2023-01-13T16:32:56.950Z,149958.84
2023-01-13T16:35:24.136Z,149937.44
2023-01-13T16:37:51.392Z,149955.06
2023-01-13T16:40:25.448Z,149985.28
2023-01-13T16:42:52.054Z,149976.50
2023-01-13T16:45:19.331Z,149971.47
2023-01-13T16:47:45.731Z,149975.22
2023-01-13T16:50:28.092Z,149956.34
2023-01-13T16:52:54.270Z,149953.81
2023-01-13T16:55:20.079Z,149951.31
2023-01-13T16:57:45.994Z,149987.84
2023-01-13T17:00:12.486Z,149989.09
2023-01-13T17:02:38.721Z,149981.53
2023-01-13T17:05:05.796Z,149985.28
2023-01-13T17:07:33.500Z,149992.88
2023-01-13T17:09:59.941Z,149965.13
2023-01-13T17:12:25.961Z,150004.25
2023-01-13T17:14:52.062Z,149977.75
2023-01-13T17:17:24.940Z,149997.91
2023-01-13T17:19:51.960Z,150008.00
2023-01-13T17:22:18.934Z,149948.75
2023-01-13T17:24:45.070Z,149952.56
2023-01-13T17:27:11.305Z,149970.22
2023-01-13T17:29:37.744Z,150010.53
2023-01-13T17:32:04.339Z,149994.13
2023-01-13T17:34:30.822Z,149961.38
2023-01-13T17:36:57.048Z,149999.16
2023-01-13T17:39:25.030Z,149968.94
2023-01-13T17:41:52.858Z,149947.47
2023-01-13T17:44:21.619Z,149932.41
2023-01-13T17:46:48.407Z,149941.19
2023-01-13T17:49:21.263Z,149950.06
2023-01-13T17:51:48.063Z,149939.94
2023-01-13T17:54:15.469Z,149943.72
2023-01-13T17:56:41.943Z,149934.91
2023-01-13T17:59:10.769Z,149947.47
2023-01-13T18:01:37.781Z,149979.00
2023-01-13T18:04:05.915Z,149961.38
2023-01-13T18:06:32.744Z,149972.72
2023-01-13T18:08:59.710Z,149953.81
2023-01-13T18:11:27.213Z,149941.19
2023-01-13T18:13:56.215Z,149973.97
2023-01-13T18:16:23.772Z,149972.72
2023-01-13T18:18:51.845Z,149975.22
2023-01-13T18:21:45.439Z,149936.19
2023-01-13T18:24:33.403Z,149941.19
2023-01-13T18:27:18.463Z,149929.84
2023-01-13T18:29:45.623Z,149931.09
2023-01-13T18:32:12.347Z,149939.94
2023-01-13T18:34:38.762Z,149933.66
2023-01-13T18:37:06.657Z,149912.19
2023-01-13T18:39:32.951Z,149938.69
2023-01-13T18:42:17.571Z,149965.13
2023-01-13T18:44:43.820Z,149961.38
2023-01-13T18:47:09.901Z,149951.31
2023-01-13T18:49:36.378Z,149953.81
2023-01-13T18:52:02.763Z,149977.75
2023-01-13T18:54:29.197Z,149981.53
2023-01-13T18:56:56.469Z,149991.63
2023-01-13T18:59:24.297Z,149970.22
2023-01-13T19:01:51.364Z,149986.59
2023-01-13T19:04:17.697Z,150002.94
2023-01-13T19:06:50.939Z,149986.59
2023-01-13T19:09:24.110Z,149985.28
2023-01-13T19:11:51.317Z,149972.72
2023-01-13T19:14:34.355Z,150008.00
2023-01-13T19:17:09.621Z,149971.47
2023-01-13T19:19:40.622Z,149972.72
2023-01-13T19:22:07.595Z,149966.38
2023-01-13T19:24:33.792Z,149970.22
2023-01-13T19:26:59.753Z,149970.22
2023-01-13T19:29:25.908Z,150002.94
2023-01-13T19:31:52.127Z,149995.41
2023-01-13T19:34:18.275Z,149966.38
2023-01-13T19:36:44.428Z,149977.75
2023-01-13T19:39:11.132Z,149953.81
2023-01-13T19:41:56.023Z,149932.41
2023-01-13T19:44:41.040Z,149986.59
2023-01-13T19:47:07.197Z,149971.47
2023-01-13T19:49:34.321Z,149985.28
2023-01-13T19:52:00.478Z,149962.63
2023-01-13T19:54:26.804Z,149975.22
2023-01-13T19:56:53.180Z,149991.63
2023-01-13T19:59:21.474Z,149977.75
2023-01-13T20:01:48.060Z,149999.16
2023-01-13T20:04:16.493Z,150011.78
2023-01-13T20:06:45.940Z,150020.59
2023-01-13T20:09:12.365Z,149975.22
2023-01-13T20:11:38.437Z,150036.97
2023-01-13T20:14:04.564Z,150040.78
2023-01-13T20:16:32.529Z,150010.53
2023-01-13T20:18:58.707Z,149987.84
2023-01-13T20:21:29.119Z,150005.50
2023-01-13T20:23:56.107Z,150026.91
2023-01-13T20:26:22.434Z,150014.28
2023-01-13T20:28:48.679Z,150024.41
2023-01-13T20:31:15.332Z,150042.06
2023-01-13T20:33:42.206Z,150058.44
2023-01-13T20:36:20.063Z,150071.00
2023-01-13T20:38:46.019Z,150060.94
2023-01-13T20:41:30.664Z,150043.31
2023-01-13T20:43:57.988Z,150049.59
2023-01-13T20:46:23.891Z,150040.78
2023-01-13T20:48:50.209Z,150044.56
2023-01-13T20:51:16.680Z,150025.66
2023-01-13T20:53:42.609Z,150047.06
2023-01-13T20:56:09.342Z,150045.81
2023-01-13T20:58:38.515Z,150028.19
2023-01-13T21:01:05.513Z,150076.09
2023-01-13T21:03:31.509Z,150038.22
2023-01-13T21:05:57.747Z,150049.59
2023-01-13T21:08:23.571Z,150055.88
2023-01-13T21:10:49.436Z,150034.47
2023-01-13T21:13:34.268Z,150006.75
2023-01-13T21:16:00.225Z,150002.94
2023-01-13T21:18:44.947Z,149986.59
2023-01-13T21:21:10.931Z,150025.66
2023-01-13T21:23:41.756Z,150025.66
2023-01-13T21:26:08.922Z,150044.56
2023-01-13T21:28:35.962Z,150036.97
2023-01-13T21:31:06.273Z,149996.66
2023-01-13T21:33:32.297Z,149992.88
2023-01-13T21:36:06.573Z,150021.88
2023-01-13T21:38:33.316Z,150001.69
2023-01-13T21:41:01.757Z,150016.81
2023-01-13T21:43:52.911Z,149946.22
2023-01-13T21:46:38.104Z,149943.72
2023-01-13T21:49:04.671Z,149963.88
2023-01-13T21:51:31.595Z,149981.53
2023-01-13T21:53:57.596Z,149973.97
2023-01-13T21:56:23.876Z,149966.38
2023-01-13T21:58:51.381Z,149960.09
2023-01-13T22:01:18.643Z,149971.47
2023-01-13T22:04:03.537Z,149947.47
2023-01-13T22:06:29.538Z,149956.34
2023-01-13T22:08:59.245Z,149990.38
2023-01-13T22:11:25.415Z,149971.47
2023-01-13T22:14:08.500Z,149961.38
2023-01-13T22:16:41.179Z,149942.47
2023-01-13T22:19:09.154Z,149943.72
2023-01-13T22:21:35.783Z,149929.84
2023-01-13T22:24:01.902Z,149952.56
2023-01-13T22:26:27.944Z,149950.06
2023-01-13T22:28:54.213Z,149947.47
2023-01-13T22:31:22.987Z,149948.75
2023-01-13T22:33:54.185Z,149943.72
2023-01-13T22:36:21.973Z,149947.47
2023-01-13T22:38:47.934Z,149950.06
2023-01-13T22:41:13.947Z,149943.72
2023-01-13T22:43:39.859Z,149939.94
2023-01-13T22:46:10.747Z,149955.06
2023-01-13T22:48:37.481Z,149982.78
2023-01-13T22:51:05.731Z,149997.91
2023-01-13T22:53:31.635Z,149995.41
2023-01-13T22:55:58.512Z,149992.88
2023-01-13T22:58:25.395Z,149986.59
2023-01-13T23:00:51.933Z,149971.47
2023-01-13T23:03:18.633Z,149996.66
2023-01-13T23:05:47.603Z,150010.53
2023-01-13T23:08:14.055Z,150015.56
2023-01-13T23:10:40.685Z,150024.41
2023-01-13T23:13:07.697Z,149987.84
2023-01-13T23:15:34.481Z,149955.06
2023-01-13T23:18:02.033Z,149971.47
2023-01-13T23:20:29.849Z,149987.84
2023-01-13T23:22:58.508Z,149999.16
2023-01-13T23:25:25.407Z,150006.75
2023-01-13T23:27:51.790Z,149976.50
2023-01-13T23:30:17.680Z,149971.47
2023-01-13T23:32:43.862Z,149961.38
2023-01-13T23:35:09.731Z,149948.75
2023-01-13T23:37:35.510Z,149962.63
2023-01-13T23:40:01.790Z,149960.09
2023-01-13T23:42:27.579Z,149968.94
2023-01-13T23:44:53.419Z,149963.88
2023-01-13T23:47:19.297Z,149986.59
2023-01-13T23:49:45.128Z,150001.69
2023-01-13T23:52:11.286Z,149966.38
2023-01-13T23:54:37.196Z,149973.97
2023-01-13T23:57:03.023Z,149980.25
2023-01-13T23:59:28.907Z,149985.28
